Time;durP1;ratioP1;P1;durP2;ratioP2;P2;SDS_P1;SDS_P2;PMS_P1;PMS_P2;Temp;Humidity;BMP_temperature;BMP_pressure;BME280_temperature;BME280_humidity;BME280_pressure;Samples;Min_cycle;Max_cycle;Signal;HPM_P1;HPM_P2
2023/12/10 00:01:15;;;;;;;10.23;2.00;;;8.70;99.90;;;;;;4981827;28;20223;-33
2023/12/10 00:03:43;;;;;;;3.53;1.40;;;8.60;99.90;;;;;;4982548;28;20185;-34
2023/12/10 00:06:11;;;;;;;6.17;1.60;;;8.60;99.90;;;;;;4946309;28;20268;-33
2023/12/10 00:08:37;;;;;;;5.07;1.53;;;8.60;99.90;;;;;;4954391;28;20191;-31
2023/12/10 00:11:03;;;;;;;4.90;1.90;;;8.60;99.90;;;;;;4965548;28;20231;-32
2023/12/10 00:13:28;;;;;;;5.17;1.73;;;8.50;99.90;;;;;;4956241;28;20212;-34
2023/12/10 00:15:54;;;;;;;12.77;2.20;;;8.50;99.90;;;;;;4957010;28;20189;-33
2023/12/10 00:18:20;;;;;;;10.73;2.13;;;8.40;99.90;;;;;;4963154;28;20213;-33
2023/12/10 00:20:46;;;;;;;10.70;2.27;;;8.40;99.90;;;;;;4963254;28;20204;-33
2023/12/10 00:23:12;;;;;;;9.47;2.07;;;8.40;99.90;;;;;;4963155;28;20184;-32
2023/12/10 00:25:39;;;;;;;12.80;2.37;;;8.40;99.90;;;;;;4966718;28;20180;-33
2023/12/10 00:28:05;;;;;;;14.20;2.63;;;8.40;99.90;;;;;;4945986;28;20188;-31
2023/12/10 00:30:33;;;;;;;9.57;2.60;;;8.40;99.90;;;;;;4956482;28;20223;-30
2023/12/10 00:33:03;;;;;;;9.33;2.50;;;8.40;99.90;;;;;;4970609;28;20188;-31
2023/12/10 00:35:29;;;;;;;11.50;2.57;;;8.30;99.90;;;;;;4977285;28;20194;-33
2023/12/10 00:37:55;;;;;;;15.87;3.17;;;8.30;99.90;;;;;;4951451;28;20300;-29
2023/12/10 00:40:21;;;;;;;13.07;2.67;;;8.30;99.90;;;;;;4958205;28;20297;-31
2023/12/10 00:42:47;;;;;;;14.27;3.43;;;8.30;99.90;;;;;;4962182;28;20177;-31
2023/12/10 00:45:13;;;;;;;9.60;2.40;;;8.30;99.90;;;;;;4938151;28;20232;-31
2023/12/10 00:47:40;;;;;;;15.17;3.40;;;8.30;99.90;;;;;;4952516;28;20183;-32
2023/12/10 00:50:06;;;;;;;11.20;2.83;;;8.40;99.90;;;;;;4957567;28;20201;-32
2023/12/10 00:52:33;;;;;;;15.57;3.30;;;8.40;99.90;;;;;;4972655;28;20180;-31
2023/12/10 00:54:58;;;;;;;14.10;3.20;;;8.30;99.90;;;;;;4987071;28;20184;-32
2023/12/10 00:57:24;;;;;;;14.43;2.97;;;8.30;99.90;;;;;;4959603;28;20184;-31
2023/12/10 00:59:50;;;;;;;15.83;3.43;;;8.20;99.90;;;;;;4959789;28;20211;-32
2023/12/10 01:02:18;;;;;;;14.13;2.80;;;8.20;99.90;;;;;;4944191;28;20177;-34
2023/12/10 01:04:44;;;;;;;14.33;3.53;;;8.20;99.90;;;;;;4958115;28;20195;-32
2023/12/10 01:07:11;;;;;;;16.67;3.23;;;8.20;99.90;;;;;;4976011;28;20183;-31
2023/12/10 01:09:38;;;;;;;17.83;3.73;;;8.20;99.90;;;;;;4953687;28;20736;-32
2023/12/10 01:12:06;;;;;;;18.43;3.37;;;8.20;99.90;;;;;;4974256;28;20199;-31
2023/12/10 01:14:32;;;;;;;14.03;3.83;;;8.20;99.90;;;;;;4958299;28;20224;-32
2023/12/10 01:16:58;;;;;;;11.77;3.53;;;8.30;99.90;;;;;;4966730;28;20219;-31
2023/12/10 01:19:23;;;;;;;16.17;3.63;;;8.30;99.90;;;;;;4971252;28;20204;-31
2023/12/10 01:21:49;;;;;;;23.17;4.27;;;8.30;99.90;;;;;;4960669;28;20192;-31
2023/12/10 01:24:19;;;;;;;14.40;3.23;;;8.30;99.90;;;;;;4941237;28;20191;-32
2023/12/10 01:26:44;;;;;;;20.13;3.00;;;8.30;99.90;;;;;;4956015;28;20223;-31
2023/12/10 01:29:10;;;;;;;14.90;3.30;;;8.30;99.90;;;;;;4944713;28;20227;-32
2023/12/10 01:31:36;;;;;;;15.57;3.93;;;8.30;99.90;;;;;;4960461;28;20199;-31
2023/12/10 01:34:03;;;;;;;17.53;3.60;;;8.30;99.90;;;;;;4964477;28;20192;-33
2023/12/10 01:36:29;;;;;;;19.93;3.50;;;8.30;99.90;;;;;;4962852;28;20181;-33
2023/12/10 01:38:56;;;;;;;17.20;3.53;;;8.20;99.90;;;;;;4965898;28;20204;-31
2023/12/10 01:41:23;;;;;;;20.53;3.37;;;8.20;99.90;;;;;;4959041;28;20196;-31
2023/12/10 01:43:50;;;;;;;18.93;3.93;;;8.10;99.90;;;;;;4959655;28;20220;-31
2023/12/10 01:46:16;;;;;;;13.77;2.90;;;8.10;99.90;;;;;;4963500;28;20187;-32
2023/12/10 01:48:44;;;;;;;20.07;4.10;;;8.10;99.90;;;;;;4958354;28;20180;-31
2023/12/10 01:51:10;;;;;;;20.37;3.60;;;8.10;99.90;;;;;;4969743;28;20204;-32
2023/12/10 01:53:38;;;;;;;16.73;3.57;;;8.00;99.90;;;;;;4974955;28;20184;-31
2023/12/10 01:56:08;;;;;;;17.43;3.80;;;8.00;99.90;;;;;;4941577;28;20184;-31
2023/12/10 01:58:36;;;;;;;17.20;3.37;;;8.00;99.90;;;;;;4946441;28;20215;-31
2023/12/10 02:01:04;;;;;;;15.60;3.30;;;8.00;99.90;;;;;;4949958;28;20282;-31
2023/12/10 02:03:31;;;;;;;19.67;3.93;;;8.00;99.90;;;;;;4964743;28;20180;-31
2023/12/10 02:05:57;;;;;;;21.50;3.80;;;8.00;99.90;;;;;;4958507;28;20188;-31
2023/12/10 02:08:22;;;;;;;11.77;3.10;;;8.00;99.90;;;;;;4947843;28;20212;-32
2023/12/10 02:10:48;;;;;;;18.50;4.03;;;8.00;99.90;;;;;;4968485;28;20199;-31
2023/12/10 02:13:15;;;;;;;16.03;3.77;;;8.00;99.90;;;;;;4962975;28;20192;-31
2023/12/10 02:15:41;;;;;;;17.80;3.27;;;7.90;99.90;;;;;;4956807;28;20246;-31
2023/12/10 02:18:07;;;;;;;15.10;4.10;;;7.90;99.90;;;;;;4949018;28;20254;-31
2023/12/10 02:20:33;;;;;;;17.10;4.07;;;8.00;99.90;;;;;;4949769;28;20208;-31
2023/12/10 02:23:06;;;;;;;17.67;3.60;;;8.00;99.90;;;;;;4957431;28;20240;-32
2023/12/10 02:25:36;;;;;;;21.13;4.13;;;8.00;99.90;;;;;;4969638;28;20212;-31
2023/12/10 02:28:08;;;;;;;17.57;3.80;;;8.00;99.90;;;;;;4957889;28;20199;-31
2023/12/10 02:30:35;;;;;;;20.43;4.23;;;8.00;99.90;;;;;;4979719;23;20305;-29
2023/12/10 02:33:01;;;;;;;15.93;2.90;;;8.00;99.90;;;;;;4969004;28;20191;-29
2023/12/10 02:35:28;;;;;;;12.37;2.97;;;8.10;99.90;;;;;;4984796;28;20184;-29
2023/12/10 02:37:54;;;;;;;13.60;3.00;;;8.10;99.90;;;;;;4980026;28;20247;-28
2023/12/10 02:40:20;;;;;;;21.17;3.70;;;8.10;99.90;;;;;;4959919;28;20267;-28
2023/12/10 02:42:46;;;;;;;14.50;3.17;;;8.10;99.90;;;;;;4984493;28;20247;-28
2023/12/10 02:45:13;;;;;;;14.57;2.70;;;8.10;99.90;;;;;;4978257;28;20175;-28
2023/12/10 02:47:40;;;;;;;15.57;2.87;;;8.10;99.90;;;;;;4977806;28;20191;-29
2023/12/10 02:50:06;;;;;;;16.03;2.80;;;8.00;99.90;;;;;;4968650;28;20207;-29
2023/12/10 02:52:35;;;;;;;11.13;2.63;;;8.00;99.90;;;;;;4983215;28;20180;-29
2023/12/10 02:55:01;;;;;;;15.00;2.87;;;7.90;99.90;;;;;;4965724;28;20184;-29
2023/12/10 02:57:27;;;;;;;12.93;2.67;;;7.90;99.90;;;;;;4988019;28;20186;-28
2023/12/10 02:59:52;;;;;;;11.67;2.90;;;7.90;99.90;;;;;;4975003;28;20215;-28
2023/12/10 03:02:18;;;;;;;11.87;2.60;;;7.90;99.90;;;;;;4970741;28;20202;-29
2023/12/10 03:04:44;;;;;;;8.23;2.00;;;7.90;99.90;;;;;;4979552;28;20274;-28
2023/12/10 03:07:10;;;;;;;10.10;2.00;;;7.80;99.90;;;;;;4972161;28;20198;-28
2023/12/10 03:09:36;;;;;;;11.80;2.23;;;7.80;99.90;;;;;;4970091;28;20192;-28
2023/12/10 03:12:02;;;;;;;11.73;2.43;;;7.70;99.90;;;;;;4987813;28;20226;-29
2023/12/10 03:14:29;;;;;;;9.83;2.20;;;7.70;99.90;;;;;;4966457;28;20218;-29
2023/12/10 03:16:57;;;;;;;8.60;2.00;;;7.60;99.90;;;;;;4989225;28;20229;-28
2023/12/10 03:19:23;;;;;;;11.47;2.17;;;7.60;99.90;;;;;;4969471;28;20203;-29
2023/12/10 03:21:50;;;;;;;12.80;2.60;;;7.50;99.90;;;;;;4973426;28;20205;-28
2023/12/10 03:24:16;;;;;;;11.80;2.40;;;7.50;99.90;;;;;;4970727;28;20176;-28
2023/12/10 03:26:41;;;;;;;14.27;2.60;;;7.50;99.90;;;;;;4992367;28;20198;-28
2023/12/10 03:29:07;;;;;;;18.03;2.87;;;7.50;99.90;;;;;;4976178;28;20187;-28
2023/12/10 03:31:33;;;;;;;12.80;3.17;;;7.50;99.90;;;;;;4970761;28;20362;-29
2023/12/10 03:33:59;;;;;;;16.67;3.20;;;7.50;99.90;;;;;;4993632;28;20180;-28
2023/12/10 03:36:25;;;;;;;17.13;2.63;;;7.50;99.90;;;;;;4978234;28;20262;-28
2023/12/10 03:38:52;;;;;;;18.73;3.13;;;7.40;99.90;;;;;;4975954;28;20258;-29
2023/12/10 03:41:17;;;;;;;11.57;2.40;;;7.40;99.90;;;;;;4985721;28;20226;-30
2023/12/10 03:43:43;;;;;;;15.90;2.97;;;7.50;99.90;;;;;;4991804;28;20184;-29
2023/12/10 03:46:09;;;;;;;15.37;3.20;;;7.50;99.90;;;;;;5010889;28;20243;-28
2023/12/10 03:48:35;;;;;;;14.00;3.20;;;7.40;99.90;;;;;;4968418;28;20191;-28
2023/12/10 03:51:01;;;;;;;13.57;2.80;;;7.40;99.90;;;;;;4984621;28;20203;-29
2023/12/10 03:53:27;;;;;;;11.40;2.80;;;7.40;99.90;;;;;;4965999;28;20294;-28
2023/12/10 03:55:53;;;;;;;14.83;3.20;;;7.50;99.90;;;;;;4973518;28;20219;-30
2023/12/10 03:58:19;;;;;;;17.93;2.70;;;7.50;99.90;;;;;;4999132;28;20235;-28
2023/12/10 04:00:45;;;;;;;11.27;2.50;;;7.60;99.90;;;;;;4980387;28;20199;-30
2023/12/10 04:03:11;;;;;;;11.00;2.30;;;7.60;99.90;;;;;;4973710;28;20206;-29
2023/12/10 04:05:37;;;;;;;12.33;2.37;;;7.60;99.90;;;;;;4958612;28;20190;-27
2023/12/10 04:08:03;;;;;;;16.13;2.33;;;7.70;99.90;;;;;;4967353;28;20198;-28
2023/12/10 04:10:29;;;;;;;13.63;3.60;;;7.60;99.90;;;;;;4962817;28;20262;-30
2023/12/10 04:12:56;;;;;;;14.60;3.90;;;7.60;99.90;;;;;;4977843;28;20207;-30
2023/12/10 04:15:22;;;;;;;12.67;3.03;;;7.60;99.90;;;;;;5010180;28;20191;-29
2023/12/10 04:17:48;;;;;;;13.57;3.17;;;7.60;99.90;;;;;;4974125;28;20242;-29
2023/12/10 04:20:14;;;;;;;11.40;2.53;;;7.70;99.90;;;;;;4975024;28;20196;-29
2023/12/10 04:22:39;;;;;;;12.90;2.80;;;7.60;99.90;;;;;;4971171;28;20190;-28
2023/12/10 04:25:05;;;;;;;17.23;2.80;;;7.70;99.90;;;;;;4974969;28;20218;-29
2023/12/10 04:27:31;;;;;;;8.63;2.50;;;7.60;99.90;;;;;;4968657;28;20191;-29
2023/12/10 04:29:57;;;;;;;9.07;2.53;;;7.60;99.90;;;;;;4983859;28;20226;-29
2023/12/10 04:32:23;;;;;;;13.27;2.30;;;7.60;99.90;;;;;;4995479;28;20270;-28
2023/12/10 04:34:49;;;;;;;16.33;3.27;;;7.60;99.90;;;;;;4979757;28;20237;-29
2023/12/10 04:37:15;;;;;;;12.43;2.70;;;7.50;99.90;;;;;;4997941;28;20249;-29
2023/12/10 04:39:40;;;;;;;11.67;2.33;;;7.50;99.90;;;;;;4982906;28;20214;-29
2023/12/10 04:42:06;;;;;;;12.20;2.60;;;7.40;99.90;;;;;;4979521;28;20218;-29
2023/12/10 04:44:32;;;;;;;12.13;2.67;;;7.40;99.90;;;;;;5018069;28;20187;-29
2023/12/10 04:46:58;;;;;;;13.30;2.73;;;7.30;99.90;;;;;;4984107;28;20242;-29
2023/12/10 04:49:24;;;;;;;11.03;2.93;;;7.30;99.90;;;;;;4998189;28;20636;-30
2023/12/10 04:51:50;;;;;;;12.10;2.83;;;7.30;99.90;;;;;;5014864;28;20213;-30
2023/12/10 04:54:16;;;;;;;15.53;3.30;;;7.30;99.90;;;;;;4999455;28;20265;-29
2023/12/10 04:56:42;;;;;;;11.37;2.37;;;7.30;99.90;;;;;;4985579;28;20283;-28
2023/12/10 04:59:07;;;;;;;10.57;2.97;;;7.30;99.90;;;;;;4984204;28;20202;-29
2023/12/10 05:01:35;;;;;;;9.87;2.57;;;7.30;99.90;;;;;;4985867;28;20198;-28
2023/12/10 05:04:02;;;;;;;12.27;2.70;;;7.20;99.90;;;;;;5001909;28;20293;-30
2023/12/10 05:06:28;;;;;;;10.07;2.50;;;7.20;99.90;;;;;;5003870;28;20265;-29
2023/12/10 05:08:54;;;;;;;13.07;2.80;;;7.20;99.90;;;;;;4986536;28;20183;-28
2023/12/10 05:11:20;;;;;;;13.77;2.40;;;7.10;99.90;;;;;;5004462;28;20214;-28
2023/12/10 05:13:46;;;;;;;16.30;3.40;;;7.10;99.90;;;;;;4998297;28;20275;-28
2023/12/10 05:16:12;;;;;;;14.27;2.73;;;7.10;99.90;;;;;;4989486;28;20183;-29
2023/12/10 05:18:38;;;;;;;10.23;2.20;;;7.00;99.90;;;;;;5001051;28;20226;-30
2023/12/10 05:21:04;;;;;;;13.20;2.73;;;7.00;99.90;;;;;;4982419;28;20200;-29
2023/12/10 05:23:29;;;;;;;16.93;2.90;;;7.00;99.90;;;;;;5000874;28;20239;-29
2023/12/10 05:25:55;;;;;;;12.13;2.43;;;7.00;99.90;;;;;;5008678;28;20186;-28
2023/12/10 05:28:21;;;;;;;15.77;2.67;;;7.00;99.90;;;;;;4979010;28;20279;-29
2023/12/10 05:30:47;;;;;;;9.57;2.50;;;7.00;99.90;;;;;;4997518;28;20235;-29
2023/12/10 05:33:13;;;;;;;12.90;2.60;;;7.00;99.90;;;;;;4987780;28;20193;-29
2023/12/10 05:35:39;;;;;;;11.37;2.70;;;7.00;99.90;;;;;;4986569;28;20187;-28
2023/12/10 05:38:09;;;;;;;17.67;2.43;;;7.00;99.90;;;;;;4985428;28;20266;-30
2023/12/10 05:40:35;;;;;;;17.30;2.77;;;6.90;99.90;;;;;;4988633;28;20209;-29
2023/12/10 05:43:00;;;;;;;12.73;2.97;;;6.90;99.90;;;;;;4990725;28;20175;-29
2023/12/10 05:45:27;;;;;;;13.80;2.10;;;6.90;99.90;;;;;;4991733;28;20214;-29
2023/12/10 05:47:54;;;;;;;8.77;2.57;;;6.90;99.90;;;;;;4987276;28;20286;-29
2023/12/10 05:50:19;;;;;;;12.73;2.77;;;6.90;99.90;;;;;;4993075;28;20208;-29
2023/12/10 05:52:46;;;;;;;14.23;2.73;;;7.00;99.90;;;;;;5012105;28;20187;-28
2023/12/10 05:55:12;;;;;;;13.50;2.97;;;7.00;99.90;;;;;;4990485;28;20183;-29
2023/12/10 05:57:38;;;;;;;12.87;2.30;;;6.90;99.90;;;;;;4989936;28;20216;-30
2023/12/10 06:00:04;;;;;;;13.20;2.70;;;6.90;99.90;;;;;;5004048;28;20215;-29
2023/12/10 06:02:31;;;;;;;8.40;2.10;;;7.00;99.90;;;;;;5003518;28;20184;-29
2023/12/10 06:04:56;;;;;;;11.47;2.20;;;7.00;99.90;;;;;;5001221;28;20175;-29
2023/12/10 06:07:22;;;;;;;12.53;2.93;;;7.00;99.90;;;;;;4984654;28;20184;-30
2023/12/10 06:09:48;;;;;;;12.43;2.67;;;6.90;99.90;;;;;;5002109;28;20222;-28
2023/12/10 06:12:14;;;;;;;9.50;2.40;;;6.90;99.90;;;;;;4989800;28;20221;-29
2023/12/10 06:14:40;;;;;;;10.57;2.53;;;7.00;99.90;;;;;;4989778;28;20281;-29
2023/12/10 06:17:06;;;;;;;14.70;2.47;;;6.90;99.90;;;;;;4990632;28;20202;-29
2023/12/10 06:19:33;;;;;;;13.53;2.67;;;6.90;99.90;;;;;;4991185;28;20248;-29
2023/12/10 06:21:59;;;;;;;12.53;2.60;;;6.90;99.90;;;;;;4985849;28;20199;-29
2023/12/10 06:24:26;;;;;;;10.80;2.70;;;6.90;99.90;;;;;;4987806;28;20185;-29
2023/12/10 06:26:52;;;;;;;10.70;2.70;;;6.90;99.90;;;;;;4989973;28;20274;-28
2023/12/10 06:29:18;;;;;;;11.10;2.13;;;6.90;99.90;;;;;;4987711;28;20263;-28
2023/12/10 06:31:44;;;;;;;13.13;2.00;;;6.90;99.90;;;;;;4985954;28;20292;-29
2023/12/10 06:34:10;;;;;;;13.03;2.90;;;6.90;99.90;;;;;;4986980;28;20201;-28
2023/12/10 06:36:36;;;;;;;11.83;2.30;;;6.80;99.90;;;;;;5005624;28;20182;-29
2023/12/10 06:39:02;;;;;;;12.10;2.30;;;6.80;99.90;;;;;;4992867;28;20291;-30
2023/12/10 06:41:29;;;;;;;10.27;3.40;;;6.80;99.90;;;;;;4990554;28;20203;-29
2023/12/10 06:43:55;;;;;;;13.33;2.63;;;6.80;99.90;;;;;;4986943;28;20182;-28
2023/12/10 06:46:20;;;;;;;9.10;2.83;;;6.80;99.90;;;;;;5002161;28;20236;-29
2023/12/10 06:48:46;;;;;;;6.80;2.50;;;6.80;99.90;;;;;;5004552;28;20285;-28
2023/12/10 06:51:12;;;;;;;13.53;2.83;;;6.80;99.90;;;;;;5002797;28;20214;-29
2023/12/10 06:53:40;;;;;;;15.40;3.30;;;6.90;99.90;;;;;;4987420;28;20191;-29
2023/12/10 06:56:07;;;;;;;10.27;2.53;;;6.90;99.90;;;;;;4977584;28;20187;-30
2023/12/10 06:58:33;;;;;;;11.50;2.47;;;6.90;99.90;;;;;;4982234;28;20215;-29
2023/12/10 07:00:59;;;;;;;11.30;2.60;;;6.90;99.90;;;;;;4984517;28;20192;-28
2023/12/10 07:03:26;;;;;;;11.87;3.00;;;7.00;99.90;;;;;;4990782;28;20182;-29
2023/12/10 07:05:52;;;;;;;12.50;2.50;;;7.00;99.90;;;;;;4987468;28;20187;-29
2023/12/10 07:08:17;;;;;;;9.27;2.33;;;7.00;99.90;;;;;;4971605;28;20186;-29
2023/12/10 07:10:43;;;;;;;13.53;2.67;;;7.00;99.90;;;;;;4983635;28;20206;-29
2023/12/10 07:13:10;;;;;;;10.60;2.27;;;7.00;99.90;;;;;;4996913;28;20190;-28
2023/12/10 07:15:36;;;;;;;15.73;2.80;;;7.00;99.90;;;;;;5023465;28;20182;-29
2023/12/10 07:18:01;;;;;;;14.40;3.10;;;7.10;99.90;;;;;;5001606;28;20236;-29
2023/12/10 07:20:31;;;;;;;10.90;2.47;;;7.10;99.90;;;;;;5003539;28;20266;-30
2023/12/10 07:22:57;;;;;;;11.23;2.37;;;7.10;99.90;;;;;;5003750;28;20191;-29
2023/12/10 07:25:23;;;;;;;12.20;2.50;;;7.10;99.90;;;;;;4976567;28;20266;-29
2023/12/10 07:27:49;;;;;;;14.30;3.40;;;7.20;99.90;;;;;;4987656;28;20190;-28
2023/12/10 07:30:15;;;;;;;11.90;2.17;;;7.30;99.90;;;;;;4993925;28;20210;-31
2023/12/10 07:32:42;;;;;;;12.97;2.63;;;7.30;99.90;;;;;;5000511;28;20199;-30
2023/12/10 07:35:08;;;;;;;9.70;2.40;;;7.30;99.90;;;;;;4974736;28;20183;-28
2023/12/10 07:37:34;;;;;;;13.17;2.93;;;7.30;99.90;;;;;;4987384;28;20279;-28
2023/12/10 07:40:00;;;;;;;11.37;2.97;;;7.30;99.90;;;;;;4966112;28;20219;-29
2023/12/10 07:42:29;;;;;;;14.77;4.67;;;7.30;99.90;;;;;;4980945;28;20181;-28
2023/12/10 07:44:55;;;;;;;14.67;4.20;;;7.40;99.90;;;;;;4964508;28;20198;-28
2023/12/10 07:47:22;;;;;;;14.97;5.80;;;7.40;99.90;;;;;;4972413;28;20188;-29
2023/12/10 07:49:49;;;;;;;10.37;2.57;;;7.30;99.90;;;;;;4974856;28;20221;-29
2023/12/10 07:52:16;;;;;;;11.40;2.37;;;7.30;99.90;;;;;;4970118;28;20179;-28
2023/12/10 07:54:44;;;;;;;13.30;2.37;;;7.30;99.90;;;;;;4984024;28;20307;-28
2023/12/10 07:57:10;;;;;;;9.73;2.27;;;7.30;99.90;;;;;;4988979;28;20219;-30
2023/12/10 07:59:36;;;;;;;12.17;2.67;;;7.30;99.90;;;;;;4980961;28;20234;-29
2023/12/10 08:02:02;;;;;;;9.90;2.10;;;7.20;99.90;;;;;;4993317;28;20201;-29
2023/12/10 08:04:28;;;;;;;11.57;2.13;;;7.20;99.90;;;;;;4969943;28;20172;-29
2023/12/10 08:06:54;;;;;;;13.43;2.73;;;7.30;99.90;;;;;;4962310;28;20183;-30
2023/12/10 08:09:19;;;;;;;11.00;2.30;;;7.30;99.90;;;;;;4983510;28;20203;-29
2023/12/10 08:11:45;;;;;;;13.27;3.87;;;7.30;99.90;;;;;;4977210;28;20203;-29
2023/12/10 08:14:11;;;;;;;10.90;2.00;;;7.30;99.90;;;;;;4974471;28;20251;-29
2023/12/10 08:16:37;;;;;;;11.57;2.30;;;7.30;99.90;;;;;;4979348;28;20279;-28
2023/12/10 08:19:03;;;;;;;10.83;2.87;;;7.40;99.90;;;;;;4983562;28;20211;-29
2023/12/10 08:21:28;;;;;;;12.57;2.50;;;7.30;99.90;;;;;;4989778;28;20210;-29
2023/12/10 08:23:54;;;;;;;10.63;2.53;;;7.30;99.90;;;;;;4967683;28;20191;-30
2023/12/10 08:26:21;;;;;;;9.13;2.53;;;7.30;99.90;;;;;;4973435;28;20188;-28
2023/12/10 08:28:46;;;;;;;10.70;2.33;;;7.30;99.90;;;;;;4970578;28;20215;-29
2023/12/10 08:31:12;;;;;;;12.50;2.60;;;7.30;99.90;;;;;;4989810;28;20335;-31
2023/12/10 08:33:38;;;;;;;9.67;2.40;;;7.30;99.90;;;;;;4987579;28;20191;-30
2023/12/10 08:36:04;;;;;;;10.10;2.70;;;7.30;99.90;;;;;;4978047;28;20207;-30
2023/12/10 08:38:32;;;;;;;9.60;2.43;;;7.30;99.90;;;;;;4986489;28;20214;-30
2023/12/10 08:40:58;;;;;;;14.50;2.87;;;7.40;99.90;;;;;;4981786;28;20201;-28
2023/12/10 08:43:25;;;;;;;9.43;2.80;;;7.50;99.90;;;;;;4971145;28;20183;-30
2023/12/10 08:46:15;;;;;;;10.93;2.90;;;7.60;99.90;;;;;;4990916;28;20191;-30
2023/12/10 08:48:42;;;;;;;14.63;2.60;;;7.70;99.90;;;;;;4981655;28;20203;-30
2023/12/10 08:51:11;;;;;;;11.20;2.20;;;7.90;99.90;;;;;;4981872;28;20214;-30
2023/12/10 08:53:37;;;;;;;12.17;2.43;;;7.90;99.90;;;;;;4965483;28;20187;-30
2023/12/10 08:56:03;;;;;;;12.23;2.60;;;8.00;99.90;;;;;;4964891;28;20197;-29
2023/12/10 08:58:30;;;;;;;8.47;2.10;;;8.10;99.90;;;;;;4970843;28;20262;-30
2023/12/10 09:00:56;;;;;;;11.10;2.10;;;8.10;99.90;;;;;;4981367;28;20208;-30
2023/12/10 09:03:22;;;;;;;8.40;2.33;;;8.20;99.90;;;;;;4975524;28;20185;-31
2023/12/10 09:05:47;;;;;;;7.27;1.90;;;8.20;99.90;;;;;;4981996;28;20269;-30
2023/12/10 09:08:13;;;;;;;6.20;1.90;;;8.30;99.90;;;;;;4986377;28;20191;-30
2023/12/10 09:10:39;;;;;;;12.00;1.97;;;8.40;99.90;;;;;;4989415;28;20210;-30
2023/12/10 09:13:05;;;;;;;8.63;1.77;;;8.40;99.90;;;;;;4977006;28;20226;-30
2023/12/10 09:15:31;;;;;;;5.70;1.90;;;8.50;99.90;;;;;;4993906;28;20187;-30
2023/12/10 09:17:57;;;;;;;11.10;2.30;;;8.50;99.90;;;;;;4987388;28;20185;-28
2023/12/10 09:20:24;;;;;;;6.03;2.10;;;8.50;99.90;;;;;;4975486;28;20199;-31
2023/12/10 09:22:50;;;;;;;8.47;2.17;;;8.60;99.90;;;;;;4970167;28;20192;-30
2023/12/10 09:25:16;;;;;;;6.37;1.90;;;8.60;99.90;;;;;;4990301;28;20234;-30
2023/12/10 09:27:42;;;;;;;10.30;2.43;;;8.70;99.90;;;;;;5008872;28;20194;-30
2023/12/10 09:30:09;;;;;;;8.77;2.47;;;8.70;99.90;;;;;;4974265;28;20211;-30
2023/12/10 09:32:35;;;;;;;13.47;2.40;;;8.80;99.90;;;;;;4977093;28;20195;-29
2023/12/10 09:35:03;;;;;;;13.60;3.20;;;8.80;99.90;;;;;;4995001;28;20187;-29
2023/12/10 09:37:29;;;;;;;13.67;2.30;;;8.90;99.90;;;;;;4973765;28;20190;-29
2023/12/10 09:39:55;;;;;;;12.17;2.23;;;8.90;99.90;;;;;;4989782;28;20210;-30
2023/12/10 09:42:20;;;;;;;11.50;2.67;;;8.90;99.90;;;;;;4977498;28;20188;-30
2023/12/10 09:44:46;;;;;;;8.30;2.07;;;9.00;99.90;;;;;;4983712;28;20241;-31
2023/12/10 09:47:12;;;;;;;9.23;2.20;;;9.00;99.90;;;;;;4994596;28;20191;-30
2023/12/10 09:49:40;;;;;;;11.60;2.60;;;9.00;99.90;;;;;;4995382;28;20272;-30
2023/12/10 09:52:07;;;;;;;10.00;2.40;;;9.00;99.90;;;;;;4973817;28;20187;-30
2023/12/10 09:54:33;;;;;;;7.80;1.87;;;8.90;99.90;;;;;;4994715;28;20279;-30
2023/12/10 09:56:59;;;;;;;10.57;2.40;;;8.80;99.90;;;;;;4995564;28;20291;-30
2023/12/10 09:59:25;;;;;;;13.07;2.73;;;8.80;99.90;;;;;;4995327;28;20207;-30
2023/12/10 10:01:53;;;;;;;10.77;2.10;;;8.80;99.90;;;;;;4975753;28;20238;-30
2023/12/10 10:04:19;;;;;;;9.07;2.07;;;8.80;99.90;;;;;;4995671;28;20204;-30
2023/12/10 10:06:46;;;;;;;10.43;2.20;;;8.70;99.90;;;;;;4969654;28;20176;-28
2023/12/10 10:09:15;;;;;;;8.60;2.40;;;8.70;99.90;;;;;;4983503;28;20207;-32
2023/12/10 10:11:52;;;;;;;12.57;2.53;;;8.60;99.90;;;;;;4996933;28;20207;-29
2023/12/10 10:14:20;;;;;;;12.07;2.50;;;8.50;99.90;;;;;;4994600;28;20187;-30
2023/12/10 10:16:54;;;;;;;8.73;2.17;;;8.50;99.90;;;;;;5000657;28;20662;-29
2023/12/10 10:19:21;;;;;;;11.43;2.20;;;8.40;99.90;;;;;;4989271;28;20218;-28
2023/12/10 10:21:50;;;;;;;15.93;3.13;;;8.40;99.90;;;;;;4986063;28;20199;-32
2023/12/10 10:24:16;;;;;;;15.50;3.17;;;8.30;99.90;;;;;;4976776;28;20272;-28
2023/12/10 10:26:43;;;;;;;12.67;3.13;;;8.30;99.90;;;;;;4973551;28;20179;-29
2023/12/10 10:29:09;;;;;;;7.80;2.60;;;8.40;99.90;;;;;;4991747;28;20194;-29
2023/12/10 10:31:35;;;;;;;13.27;2.57;;;8.40;99.90;;;;;;4992597;28;20219;-28
2023/12/10 10:34:04;;;;;;;12.60;2.70;;;8.40;99.90;;;;;;4964750;28;20201;-30
2023/12/10 10:36:31;;;;;;;9.53;2.50;;;8.50;99.90;;;;;;5012600;28;20180;-30
2023/12/10 10:38:57;;;;;;;8.40;2.50;;;8.50;99.90;;;;;;4988426;28;20208;-30
2023/12/10 10:41:27;;;;;;;10.70;2.63;;;8.50;99.90;;;;;;4984982;28;20203;-31
2023/12/10 10:43:58;;;;;;;11.03;3.23;;;8.60;99.90;;;;;;4990230;28;20266;-28
2023/12/10 10:46:26;;;;;;;11.67;2.37;;;8.60;99.90;;;;;;4975066;28;20180;-29
2023/12/10 10:48:55;;;;;;;10.27;3.47;;;8.60;99.90;;;;;;5004456;28;20203;-30
2023/12/10 10:51:27;;;;;;;11.87;2.80;;;8.60;99.90;;;;;;4974468;28;20219;-28
2023/12/10 10:54:03;;;;;;;11.27;2.90;;;8.70;99.90;;;;;;4975950;28;20193;-26
2023/12/10 10:56:30;;;;;;;12.33;2.83;;;8.70;99.90;;;;;;5012159;28;20206;-30
2023/12/10 10:59:02;;;;;;;12.10;2.47;;;8.60;99.90;;;;;;5016176;28;20198;-28
2023/12/10 11:01:41;;;;;;;17.60;3.83;;;8.60;99.90;;;;;;4992460;28;20204;-30
2023/12/10 11:04:15;;;;;;;15.13;4.47;;;8.60;99.90;;;;;;4991153;28;20267;-30
2023/12/10 11:06:47;;;;;;;12.17;3.20;;;8.60;99.90;;;;;;4989377;28;20179;-29
2023/12/10 11:09:13;;;;;;;10.57;2.80;;;8.60;99.90;;;;;;4971126;28;20215;-30
2023/12/10 11:11:40;;;;;;;13.17;2.93;;;8.60;99.90;;;;;;4972741;28;20218;-30
2023/12/10 11:14:28;;;;;;;11.23;3.00;;;8.60;99.90;;;;;;4990204;28;20317;-30
2023/12/10 11:17:05;;;;;;;12.67;3.37;;;8.70;99.90;;;;;;4985612;28;20190;-30
2023/12/10 11:19:32;;;;;;;10.97;2.83;;;8.70;99.90;;;;;;4969934;28;20203;-30
2023/12/10 11:21:59;;;;;;;10.60;2.60;;;8.70;99.90;;;;;;4985669;28;20270;-30
2023/12/10 11:24:26;;;;;;;9.23;2.53;;;8.70;99.90;;;;;;4969732;28;20188;-30
2023/12/10 11:26:52;;;;;;;8.90;2.40;;;8.70;99.90;;;;;;4984209;28;20280;-29
2023/12/10 11:29:18;;;;;;;8.90;2.03;;;8.70;99.90;;;;;;4980887;28;20247;-29
2023/12/10 11:31:45;;;;;;;11.97;2.63;;;8.70;99.90;;;;;;4988276;28;20217;-30
2023/12/10 11:34:11;;;;;;;11.07;2.30;;;8.70;99.90;;;;;;4975559;28;20262;-30
2023/12/10 11:36:38;;;;;;;8.97;2.10;;;8.70;99.90;;;;;;4971544;28;20294;-30
2023/12/10 11:39:13;;;;;;;7.67;2.03;;;8.80;99.90;;;;;;4965418;28;20243;-30
2023/12/10 11:41:41;;;;;;;10.00;2.23;;;8.80;99.90;;;;;;4974381;28;20194;-31
2023/12/10 11:44:10;;;;;;;8.40;2.47;;;8.80;99.90;;;;;;4984253;28;20183;-30
2023/12/10 11:46:35;;;;;;;6.90;2.00;;;8.80;99.90;;;;;;4983364;28;20194;-30
2023/12/10 11:49:01;;;;;;;7.00;2.23;;;8.80;99.90;;;;;;5006904;28;20213;-29
2023/12/10 11:51:27;;;;;;;14.13;2.40;;;8.90;99.90;;;;;;4969864;28;20209;-29
2023/12/10 11:53:54;;;;;;;10.93;2.57;;;8.90;99.90;;;;;;4981014;28;20246;-30
2023/12/10 11:56:21;;;;;;;10.63;2.40;;;8.90;99.90;;;;;;4985729;28;20241;-29
2023/12/10 11:58:47;;;;;;;5.93;2.40;;;9.00;99.90;;;;;;4964903;28;20207;-31
2023/12/10 12:01:16;;;;;;;8.03;2.27;;;9.00;99.90;;;;;;4981465;28;20199;-30
2023/12/10 12:03:43;;;;;;;6.43;2.10;;;9.10;99.90;;;;;;4981247;28;20201;-30
2023/12/10 12:06:09;;;;;;;7.73;2.10;;;9.10;99.90;;;;;;4982754;28;20183;-29
2023/12/10 12:08:37;;;;;;;7.33;1.77;;;9.00;99.90;;;;;;4983815;28;20241;-30
2023/12/10 12:11:03;;;;;;;8.43;2.37;;;9.10;99.90;;;;;;4981174;28;20763;-29
2023/12/10 12:13:29;;;;;;;10.13;2.50;;;9.00;99.90;;;;;;4983241;28;20308;-29
2023/12/10 12:15:56;;;;;;;5.37;2.40;;;9.10;99.90;;;;;;4982123;28;20180;-30
2023/12/10 12:18:26;;;;;;;10.43;2.63;;;9.10;99.90;;;;;;4983317;28;20214;-31
2023/12/10 12:20:52;;;;;;;7.17;2.37;;;9.10;99.90;;;;;;4996869;28;20301;-30
2023/12/10 12:23:18;;;;;;;10.10;2.23;;;9.10;99.90;;;;;;4968606;28;20193;-30
2023/12/10 12:25:44;;;;;;;9.90;2.17;;;9.10;99.90;;;;;;4984261;28;20180;-30
2023/12/10 12:28:10;;;;;;;7.03;1.90;;;9.20;99.90;;;;;;4983998;28;20175;-31
2023/12/10 12:30:37;;;;;;;9.37;2.17;;;9.20;99.90;;;;;;4979875;28;20243;-30
2023/12/10 12:33:03;;;;;;;8.50;2.30;;;9.20;99.90;;;;;;4973290;28;20239;-30
2023/12/10 12:35:30;;;;;;;6.60;2.47;;;9.20;99.90;;;;;;4974134;28;20659;-30
2023/12/10 12:37:56;;;;;;;6.47;2.40;;;9.30;99.90;;;;;;4992000;28;20218;-30
2023/12/10 12:40:23;;;;;;;9.93;2.50;;;9.30;99.90;;;;;;4971025;28;20196;-30
2023/12/10 12:42:50;;;;;;;7.03;1.90;;;9.30;99.90;;;;;;4987423;28;20181;-30
2023/12/10 12:45:20;;;;;;;8.00;2.07;;;9.30;99.90;;;;;;4970311;28;20198;-31
2023/12/10 12:47:48;;;;;;;5.87;2.57;;;9.20;99.90;;;;;;4985922;28;20180;-31